• Join FlightAware (Why Join?)
  • Login
  • US Flag 
06:50PM EDT


 

Airport Tracker/Info


-or-


 

Live Flight TrackerFlight Track Log ✈ C-GJKI ✈ 05-May-2013 ✈ CYSJ - KHOU

Flight Track Log - Related Links

Times and Time Zones

All times are in EDT time to prevent confusion due to time zone crossing. See the C-GJKI flight status page for this flight to view local times or setup timezone preferences in your user account.

Time Position Orientation Groundspeed Altitude Reporting Facility
EDT Latitude Longitude Course Direction KTS MPH feet Rate Location/Type
03:19PM 45.2439 -65.9461 241° Southwest 450 518 4,000  Level Boston Center
03:19PM 45.2333 -65.9833 248° West 220 253 5,400 3,540 Climbing Moncton Center
03:20PM 45.2167 -66.0833 257° West 260 299 8,600 3,120 Climbing Moncton Center
03:21PM 45.2000 -66.2000 259° West 290 334 11,700 2,460 Climbing Moncton Center
03:22PM 45.1333 -66.3167 231° Southwest 340 391 13,600 2,340 Climbing Moncton Center
03:23PM 45.0833 -66.4333 239° Southwest 370 426 16,400 2,400 Climbing Moncton Center
03:24PM 44.9769 -66.9251 248° West  Level FlightAware Approximate
03:24PM 45.0500 -66.5833 253° West 380 437 18,500  Level Moncton Center
03:25PM 44.9196 -67.0511 241° Southwest  Level FlightAware Approximate
03:26PM 44.9719 -66.8019 243° Southwest 398 458 21,900  Level Boston Center
03:26PM 44.9333 -66.8500 221° Southwest 410 472 22,700 2,220 Climbing Moncton Center
03:27PM 44.8667 -67.0167 241° Southwest 420 483 24,800 1,860 Climbing Moncton Center
03:28PM 44.8167 -67.1500 242° Southwest 430 495 26,500 1,560 Climbing Moncton Center
03:29PM 44.7667 -67.3000 245° Southwest 440 506 28,000 1,200 Climbing Moncton Center
03:30PM 44.7453 -67.4031 254° West 444 511 28,600 1,080 Climbing Boston Center
03:31PM 44.6833 -67.5633 242° Southwest 464 534 29,900 660 Climbing Boston Center
03:32PM 44.6133 -67.7353 240° Southwest 471 542 30,000 360 Climbing Boston Center
03:32PM 44.5833 -67.7833 229° Southwest 460 529 30,400 1,380 Climbing Moncton Center
03:33PM 44.5508 -67.8919 247° West 471 542 31,400 1,260 Climbing Boston Center
03:34PM 44.4903 -68.0481 242° Southwest 471 542 32,600 1,080 Climbing Boston Center
03:35PM 44.4275 -68.2097 242° Southwest 471 542 33,600 1,200 Climbing Boston Center
03:36PM 44.3622 -68.3683 240° Southwest 477 549 35,000 1,260 Climbing Boston Center
03:37PM 44.2992 -68.5294 241° Southwest 477 549 36,200 1,320 Climbing Boston Center
03:38PM 44.2356 -68.6872 241° Southwest 477 549 37,700 1,320 Climbing Boston Center
03:39PM 44.1717 -68.8419 240° Southwest 477 549 38,900 1,140 Climbing Boston Center
03:40PM 44.1097 -68.9931 240° Southwest 471 542 40,000 540 Climbing Boston Center
03:41PM 44.0475 -69.1469 241° Southwest 471 542 40,000  Level Boston Center
03:42PM 43.9831 -69.3006 240° Southwest 471 542 40,000  Level Boston Center
03:43PM 43.9183 -69.4539 240° Southwest 471 542 40,000  Level Boston Center
03:45PM 43.7964 -69.7478 240° Southwest 471 542 40,000  Level Boston Center
03:46PM 43.7308 -69.8972 239° Southwest 471 542 40,000  Level Boston Center
03:47PM 43.6675 -70.0492 240° Southwest 471 542 40,000  Level Boston Center
03:48PM 43.5981 -70.2181 240° Southwest 471 542 40,000  Level Boston Center
03:49PM 43.5342 -70.3694 240° Southwest 471 542 40,000  Level Boston Center
03:50PM 43.4658 -70.5233 239° Southwest 476 548 40,000  Level Boston Center
03:51PM 43.3956 -70.6742 237° Southwest 476 548 40,000  Level Boston Center
03:52PM 43.3142 -70.8108 231° Southwest 476 548 40,000  Level Boston Center
03:53PM 43.2325 -70.9469 231° Southwest 471 542 40,000  Level Boston Center
03:54PM 43.1531 -71.0853 232° Southwest 471 542 40,000  Level Boston Center
03:55PM 43.0753 -71.2122 230° Southwest 478 550 40,000  Level Boston Center
03:56PM 42.9933 -71.3586 233° Southwest 471 542 40,000  Level Boston Center
03:57PM 42.9050 -71.4961 229° Southwest 471 542 40,000  Level Boston Center
03:58PM 42.8247 -71.6333 231° Southwest 480 552 40,000  Level Boston Center
03:59PM 42.7422 -71.7700 231° Southwest 470 541 40,000  Level Boston Center
04:00PM 42.6597 -71.9094 231° Southwest 475 547 40,000  Level Boston Center
04:01PM 42.5956 -72.0142 230° Southwest 475 547 40,000  Level Boston Center
04:02PM 42.4958 -72.1783 231° Southwest 475 547 40,000  Level Boston Center
04:03PM 42.4211 -72.2911 228° Southwest 475 547 40,000  Level Boston Center
04:04PM 42.3567 -72.3981 231° Southwest 468 539 40,000  Level Boston Center
04:05PM 42.2461 -72.5803 231° Southwest 482 555 40,000  Level Boston Center
04:06PM 42.1792 -72.6867 230° Southwest 476 548 40,000  Level Boston Center
04:07PM 42.0850 -72.8514 232° Southwest 476 548 40,000  Level Boston Center
04:08PM 42.0031 -72.9878 231° Southwest 473 544 40,000  Level Boston Center
04:09PM 41.9086 -73.1094 224° Southwest 472 543 40,000  Level Boston Center
04:10PM 41.7997 -73.2003 212° Southwest 472 543 40,000  Level Boston Center
04:11PM 41.6906 -73.2964 213° Southwest 472 543 40,000  Level Boston Center
04:12PM 41.5875 -73.4225 222° Southwest 472 543 40,000  Level Boston Center
04:13PM 41.5069 -73.5544 231° Southwest 462 532 40,000  Level Boston Center
04:16PM 41.3086 -73.8592 229° Southwest 474 545 40,000  Level New York Center
04:17PM 41.2242 -73.9819 228° Southwest 469 540 40,000  Level New York Center
04:18PM 41.1375 -74.1072 227° Southwest 469 540 40,000  Level New York Center
04:19PM 41.0611 -74.2247 229° Southwest 463 533 40,000  Level New York Center
04:21PM 40.9075 -74.4778 231° Southwest 458 527 40,000  Level New York Center
04:22PM 40.8286 -74.6022 230° Southwest 453 521 40,000  Level New York Center
04:23PM 40.7472 -74.7319 230° Southwest 458 527 40,000  Level New York Center
04:24PM 40.6681 -74.8586 231° Southwest 458 527 40,000  Level New York Center
04:25PM 40.5842 -74.9903 230° Southwest 458 527 40,000  Level New York Center
04:26PM 40.5067 -75.1164 231° Southwest 458 527 40,000  Level New York Center
04:27PM 40.4247 -75.2478 231° Southwest 458 527 40,000  Level New York Center
04:28PM 40.3425 -75.3758 230° Southwest 458 527 40,000  Level New York Center
04:29PM 40.2603 -75.5064 230° Southwest 463 533 40,000  Level New York Center
04:30PM 40.1839 -75.6397 233° Southwest 463 533 40,000  Level New York Center
04:31PM 40.1156 -75.7789 237° Southwest 458 527 40,000  Level New York Center
04:32PM 40.0450 -75.9175 236° Southwest 463 533 40,000  Level New York Center
04:33PM 39.9786 -76.0533 238° Southwest 463 533 40,000  Level New York Center
04:34PM 39.9097 -76.1889 237° Southwest 463 533 40,000  Level New York Center
04:35PM 39.8028 -76.3936 236° Southwest 465 535 40,000  Level Washington Center
04:36PM 39.7203 -76.5411 234° Southwest 459 528 40,000  Level Washington Center
04:37PM 39.6506 -76.6722 235° Southwest 446 513 40,000  Level Washington Center
04:38PM 39.5825 -76.8058 237° Southwest 444 511 40,000  Level Washington Center
04:39PM 39.5122 -76.9419 236° Southwest 450 518 40,000  Level Washington Center
04:40PM 39.4256 -77.0531 225° Southwest 450 518 40,000  Level Washington Center
04:41PM 39.3306 -77.1506 218° Southwest 445 512 40,000  Level Washington Center
04:42PM 39.2375 -77.2503 220° Southwest 440 506 40,000  Level Washington Center
04:43PM 39.1422 -77.3500 219° Southwest 440 506 40,000  Level Washington Center
04:44PM 39.0492 -77.4467 219° Southwest 445 512 40,000  Level Washington Center
04:45PM 38.9622 -77.5350 218° Southwest 445 512 40,000  Level Washington Center
04:46PM 38.8606 -77.6392 219° Southwest 445 512 40,000  Level Washington Center
04:47PM 38.7672 -77.7322 218° Southwest 438 504 40,000  Level Washington Center
04:48PM 38.6822 -77.8256 221° Southwest 442 509 40,000  Level Washington Center
04:49PM 38.5989 -77.9319 225° Southwest 432 497 40,000  Level Washington Center
04:50PM 38.5297 -78.0547 234° Southwest 432 497 40,000  Level Washington Center
04:51PM 38.4583 -78.1769 233° Southwest 432 497 40,000  Level Washington Center
04:52PM 38.3867 -78.2989 233° Southwest 437 503 40,000  Level Washington Center
04:53PM 38.3150 -78.4233 234° Southwest 437 503 40,000  Level Washington Center
04:54PM 38.2411 -78.5528 234° Southwest 442 509 40,000  Level Washington Center
04:55PM 38.1756 -78.6636 233° Southwest 437 503 40,000  Level Washington Center
04:56PM 38.1039 -78.7819 232° Southwest 432 497 40,000  Level Washington Center
04:58PM 38.0050 -78.9365 231° Southwest  Level FlightAware Approximate
04:59PM 37.8847 -79.1517 238° Southwest 432 497 40,000  Level Washington Center
05:00PM 37.8183 -79.2800 237° Southwest 427 491 40,000  Level Washington Center
05:01PM 37.7581 -79.4058 239° Southwest 427 491 40,000  Level Washington Center
05:02PM 37.6914 -79.5311 236° Southwest 427 491 40,000  Level Washington Center
05:03PM 37.6289 -79.6564 238° Southwest 427 491 40,000  Level Washington Center
05:04PM 37.5661 -79.7839 238° Southwest 427 491 40,000  Level Washington Center
05:05PM 37.5514 -79.7890 238° Southwest  Level FlightAware Approximate
05:07PM 37.4044 -80.0967 237° Southwest 432 497 40,000  Level Atlanta Center
05:08PM 37.3417 -80.2200 237° Southwest 427 491 40,000  Level Atlanta Center
05:09PM 37.2786 -80.3403 237° Southwest 427 491 40,000  Level Atlanta Center
05:10PM 37.2175 -80.4581 237° Southwest 427 491 40,000  Level Atlanta Center
05:11PM 37.1603 -80.5700 237° Southwest 427 491 40,000  Level Atlanta Center
05:12PM 37.0989 -80.6897 237° Southwest 422 486 40,000  Level Atlanta Center
05:13PM 37.0483 -80.8167 244° Southwest 417 480 40,000  Level Atlanta Center
05:15PM 36.9589 -81.0614 245° Southwest  Level FlightAware Approximate
05:16PM 36.9019 -81.2250 245° Southwest 417 480 40,000  Level Atlanta Center
05:17PM 36.8547 -81.3539 245° Southwest 417 480 40,000  Level Atlanta Center
05:18PM 36.8094 -81.4850 247° West 417 480 40,000  Level Atlanta Center
05:19PM 36.7642 -81.6158 247° West 417 480 40,000  Level Atlanta Center
05:20PM 36.7189 -81.7442 246° West 417 480 40,000  Level Atlanta Center
05:21PM 36.6689 -81.8750 245° Southwest 417 480 40,000  Level Atlanta Center
05:22PM 36.6211 -82.0058 246° West 417 480 40,000  Level Atlanta Center
05:23PM 36.5711 -82.1389 245° Southwest 423 487 40,000  Level Atlanta Center
05:24PM 36.5272 -82.2586 246° West 423 487 40,000  Level Atlanta Center
05:25PM 36.4769 -82.3942 245° Southwest 423 487 40,000  Level Atlanta Center
05:26PM 36.4264 -82.5292 245° Southwest 423 487 40,000  Level Atlanta Center
05:27PM 36.3758 -82.6669 246° West 429 494 40,000  Level Atlanta Center
05:28PM 36.3253 -82.7992 245° Southwest 429 494 40,000  Level Atlanta Center
05:29PM 36.2722 -82.9314 244° Southwest 429 494 40,000  Level Atlanta Center
05:30PM 36.2233 -83.0633 245° Southwest 429 494 40,000  Level Atlanta Center
05:31PM 36.1742 -83.1975 246° West 429 494 40,000  Level Atlanta Center
05:32PM 36.1167 -83.3447 244° Southwest 429 494 40,000  Level Atlanta Center
05:33PM 36.0653 -83.4761 244° Southwest 429 494 40,000  Level Atlanta Center
05:34PM 36.0200 -83.5972 245° Southwest 424 488 40,000  Level Atlanta Center
05:35PM 35.9722 -83.7283 246° West 424 488 40,000  Level Atlanta Center
05:36PM 35.9164 -83.8619 243° Southwest 429 494 40,000  Level Atlanta Center
05:37PM 35.8456 -83.9797 233° Southwest 434 499 40,000  Level Atlanta Center
05:38PM 35.7642 -84.0900 228° Southwest 434 499 40,000  Level Atlanta Center
05:39PM 35.6869 -84.1997 229° Southwest 434 499 40,000  Level Atlanta Center
05:40PM 35.6053 -84.3094 228° Southwest 434 499 40,000  Level Atlanta Center
05:42PM 35.4503 -84.5283 229° Southwest 439 505 40,000  Level Atlanta Center
05:43PM 35.3622 -84.6475 228° Southwest 439 505 40,000  Level Atlanta Center
05:45PM 35.2044 -84.8622 228° Southwest 434 499 40,000  Level Atlanta Center
05:46PM 35.1286 -84.9708 230° Southwest 434 499 40,000  Level Atlanta Center
05:47PM 35.0506 -85.0764 228° Southwest 434 499 40,000  Level Atlanta Center
05:48PM 34.9722 -85.1844 229° Southwest 434 499 40,000  Level Atlanta Center
05:49PM 34.8919 -85.2922 228° Southwest 434 499 40,000  Level Atlanta Center
05:50PM 34.8094 -85.3997 227° Southwest 439 505 40,000  Level Atlanta Center
05:51PM 34.7308 -85.5072 228° Southwest 439 505 40,000  Level Atlanta Center
05:52PM 34.6503 -85.6169 228° Southwest 439 505 40,000  Level Atlanta Center
05:53PM 34.5697 -85.7214 227° Southwest 439 505 40,000  Level Atlanta Center
05:54PM 34.5058 -85.8058 227° Southwest 439 505 40,000  Level Atlanta Center
05:55PM 34.4186 -85.9222 228° Southwest 439 505 40,000  Level Atlanta Center
05:56PM 34.3375 -86.0286 227° Southwest 439 505 40,000  Level Atlanta Center
05:57PM 34.2564 -86.1350 227° Southwest 439 505 40,000  Level Atlanta Center
05:58PM 34.1731 -86.2433 227° Southwest 439 505 40,000  Level Atlanta Center
05:59PM 34.0919 -86.3489 227° Southwest 439 505 40,000  Level Atlanta Center
06:00PM 34.0106 -86.4544 227° Southwest 439 505 40,000  Level Atlanta Center
06:01PM 33.9250 -86.5647 227° Southwest 439 505 40,000  Level Atlanta Center
06:02PM 33.8433 -86.6750 228° Southwest 439 505 40,000  Level Atlanta Center
06:03PM 33.7594 -86.7822 227° Southwest 439 505 40,000  Level Atlanta Center
06:04PM 33.6797 -86.8922 229° Southwest 439 505 40,000  Level Atlanta Center
06:05PM 33.6225 -87.0225 242° Southwest 439 505 40,000  Level Atlanta Center
06:06PM 33.5753 -87.1553 247° West 439 505 40,000  Level Atlanta Center
06:08PM 33.4783 -87.4183 246° West 436 502 40,000  Level Memphis Center
06:09PM 33.4272 -87.5519 245° Southwest 436 502 40,000  Level Memphis Center
06:10PM 33.3758 -87.6806 244° Southwest 436 502 40,000  Level Memphis Center
06:11PM 33.3222 -87.8089 243° Southwest 436 502 40,000  Level Memphis Center
06:12PM 33.2661 -87.9372 242° Southwest 436 502 40,000  Level Memphis Center
06:13PM 33.2122 -88.0631 243° Southwest 436 502 40,000  Level Memphis Center
06:14PM 33.1561 -88.1908 242° Southwest 436 502 40,000  Level Memphis Center
06:15PM 33.0978 -88.3314 244° Southwest 436 502 40,000  Level Memphis Center
06:16PM 33.0414 -88.4589 242° Southwest 436 502 40,000  Level Memphis Center
06:17PM 32.9869 -88.5839 243° Southwest 436 502 40,000  Level Memphis Center
06:18PM 32.9303 -88.7114 242° Southwest 441 507 40,000  Level Memphis Center
06:19PM 32.8733 -88.8336 241° Southwest 441 507 40,000  Level Memphis Center
06:20PM 32.8186 -88.9581 242° Southwest 436 502 40,000  Level Memphis Center
06:21PM 32.7633 -89.0800 242° Southwest 436 502 40,000  Level Memphis Center
06:22PM 32.7083 -89.2019 242° Southwest 436 502 40,000  Level Memphis Center
06:23PM 32.6531 -89.3258 242° Southwest 436 502 40,000  Level Memphis Center
06:24PM 32.5997 -89.4497 243° Southwest 436 502 40,000  Level Memphis Center
06:26PM 32.4969 -89.6972 244° Southwest 426 490 40,000  Level Memphis Center
06:27PM 32.4494 -89.8206 245° Southwest 426 490 40,000  Level Memphis Center
06:28PM 32.3978 -89.9392 243° Southwest 420 483 40,000  Level Memphis Center
06:29PM 32.3481 -90.0622 244° Southwest 420 483 40,000  Level Memphis Center
06:30PM 32.2961 -90.1878 244° Southwest 420 483 40,000  Level Memphis Center
06:31PM 32.2439 -90.3131 244° Southwest 426 490 40,000  Level Memphis Center
06:32PM 32.1939 -90.4333 244° Southwest 421 484 40,000  Level Memphis Center
06:33PM 32.1414 -90.5561 243° Southwest 421 484 40,000  Level Memphis Center
06:34PM 32.0789 -90.7092 244° Southwest 412 474 40,000  Level Houston Center
06:35PM 32.0303 -90.8247 244° Southwest 406 467 40,000  Level Houston Center
06:36PM 31.9789 -90.9458 243° Southwest 412 474 40,000  Level Houston Center
06:37PM 31.9183 -91.0914 244° Southwest 413 475 40,000  Level Houston Center
06:38PM 31.8647 -91.2111 242° Southwest 411 473 40,000  Level Houston Center
06:39PM 31.8106 -91.3269 241° Southwest 406 467 40,000  Level Houston Center
06:40PM 31.7564 -91.4450 242° Southwest 410 472 40,000  Level Houston Center
06:41PM 31.7022 -91.5608 241° Southwest 404 465 40,000  Level Houston Center
06:43PM 31.6301 -91.7122 241° Southwest  Level FlightAware Approximate
06:43PM 31.5800 -91.8203 241° Southwest 415 478 40,000  Level Houston Center
06:44PM 31.5233 -91.9403 241° Southwest 419 482 40,000  Level Houston Center
06:45PM 31.4611 -92.0700 241° Southwest 425 489 40,000  Level Houston Center
06:46PM 31.4033 -92.1925 241° Southwest 430 495 40,000  Level Houston Center
06:47PM 31.3472 -92.3117 241° Southwest 420 483 40,000  Level Houston Center
06:48PM 31.2892 -92.4306 240° Southwest 421 484 40,000  Level Houston Center
06:50PM 31.2342 -92.5508 242° Southwest 423 487 40,000  Level Houston Center
06:51PM 31.1931 -92.6742 249° West 411 473 40,000  Level Houston Center
06:52PM 31.1383 -92.8203 246° West 411 473 40,000  Level Houston Center
06:53PM 31.0939 -92.9406 247° West 406 467 40,000  Level Houston Center
06:54PM 31.0494 -93.0611 247° West 407 468 40,000  Level Houston Center
06:56PM 30.9614 -93.2964 246° West 398 458 40,000 -600 Level Houston Center
06:57PM 30.9075 -93.4394 246° West 404 465 38,300 -1,860 Descending Houston Center
06:58PM 30.8625 -93.5586 246° West 406 467 36,200 -2,100 Descending Houston Center
06:59PM 30.8172 -93.6797 247° West 410 472 34,000 -2,160 Descending Houston Center
07:00PM 30.7703 -93.8044 246° West 422 486 31,800 -2,400 Descending Houston Center
07:02PM 30.6608 -94.0897 246° West 447 514 26,700 -2,460 Descending Houston Center
07:03PM 30.6097 -94.2258 246° West 461 531 24,200 -2,340 Descending Houston Center
07:03PM 30.5836 -94.2869 244° Southwest 460 529 23,200 -2,280 Descending Houston Center
07:04PM 30.5589 -94.3583 248° West 455 524 21,900 -2,460 Descending Houston Center
07:05PM 30.4997 -94.5019 244° Southwest 441 507 19,200 -2,340 Descending Houston Center
07:06PM 30.4394 -94.6053 236° Southwest 431 496 17,100 -2,280 Descending Houston Center
07:07PM 30.3581 -94.7311 233° Southwest 385 443 14,400 -2,040 Descending Houston Center
07:08PM 30.3019 -94.8167 233° Southwest 389 448 13,000 -1,380 Descending Houston Center
07:09PM 30.2297 -94.9289 233° Southwest 341 392 11,600 -1,140 Descending Houston Center
07:10PM 30.1856 -94.9969 233° Southwest 337 388 10,700 -840 Descending Houston Center
07:11PM 30.1233 -95.0706 226° Southwest 323 372 10,000 -360 Descending Houston Center
07:12PM 30.0261 -95.1181 203° Southwest 317 365 10,000  Level Houston Center
07:13PM 29.9444 -95.1533 201° Southwest 315 362 10,000 -360 Level Houston Center
07:14PM 29.8689 -95.1853 200° South 293 337 9,300 -1,140 Descending Houston Center
07:15PM 29.7986 -95.2161 201° Southwest 274 315 7,700 -1,620 Descending Houston Center
07:16PM 29.7164 -95.2336 190° South 253 291 6,000 -840 Descending Houston Center
07:17PM 29.6447 -95.2364 182° South 259 298 6,000  Level Houston Center
07:18PM 29.5775 -95.2478 188° South 258 297 6,000 -660 Level Houston Center
07:19PM 29.5239 -95.2958 218° Southwest 249 287 4,700 -1,500 Descending Houston Center
07:20PM 29.4947 -95.3589 242° Southwest 226 260 3,000 -840 Descending Houston Center
07:22PM 29.5392 -95.3847 333° Northwest 187 215 3,100 -600 Climbing Houston Center
07:23PM 29.5839 -95.3458 37° Northeast 183 211 1,800 -1,140 Descending Houston Center
07:24PM 29.6144 -95.3108 45° Northeast 137 158 800 -840 Descending Houston Center
07:25PM 29.6439 -95.2806 42° Northeast 147 169 100 -660 Descending Houston Center
07:27PM 29.6454 -95.2789 199° South  Level Estimated
07:34PM 29.6454 -95.2789 199° South  Level Estimated